sensor_id;sensor_type;location;lat;lon;timestamp;pressure;altitude;pressure_sealevel;temperature;humidity
59493;BME280;45497;43.996;22.876;2023-04-10T00:00:43;101575.53;;;11.04;53.86
59493;BME280;45497;43.996;22.876;2023-04-10T00:03:10;101577.72;;;11.08;53.87
59493;BME280;45497;43.996;22.876;2023-04-10T00:05:35;101582.03;;;11.09;53.79
59493;BME280;45497;43.996;22.876;2023-04-10T00:08:01;101583.16;;;11.07;54.07
59493;BME280;45497;43.996;22.876;2023-04-10T00:10:27;101575.16;;;10.99;53.87
59493;BME280;45497;43.996;22.876;2023-04-10T00:12:56;101574.22;;;10.90;54.12
59493;BME280;45497;43.996;22.876;2023-04-10T00:15:21;101582.63;;;10.85;54.32
59493;BME280;45497;43.996;22.876;2023-04-10T00:17:47;101570.94;;;10.78;54.73
59493;BME280;45497;43.996;22.876;2023-04-10T00:20:14;101573.81;;;10.67;54.85
59493;BME280;45497;43.996;22.876;2023-04-10T00:22:40;101576.53;;;10.57;54.95
59493;BME280;45497;43.996;22.876;2023-04-10T00:25:07;101574.53;;;10.41;55.19
59493;BME280;45497;43.996;22.876;2023-04-10T00:27:32;101560.19;;;10.34;55.52
59493;BME280;45497;43.996;22.876;2023-04-10T00:29:58;101556.28;;;10.38;55.50
59493;BME280;45497;43.996;22.876;2023-04-10T00:32:23;101559.53;;;10.32;55.51
59493;BME280;45497;43.996;22.876;2023-04-10T00:34:49;101556.72;;;10.33;55.14
59493;BME280;45497;43.996;22.876;2023-04-10T00:37:14;101559.78;;;10.29;55.13
59493;BME280;45497;43.996;22.876;2023-04-10T00:39:40;101549.47;;;10.26;55.24
59493;BME280;45497;43.996;22.876;2023-04-10T00:42:05;101555.06;;;10.23;55.17
59493;BME280;45497;43.996;22.876;2023-04-10T00:44:33;101559.28;;;10.16;55.18
59493;BME280;45497;43.996;22.876;2023-04-10T00:47:03;101553.41;;;10.22;55.56
59493;BME280;45497;43.996;22.876;2023-04-10T00:49:29;101561.16;;;10.33;55.30
59493;BME280;45497;43.996;22.876;2023-04-10T00:51:55;101554.63;;;10.37;55.11
59493;BME280;45497;43.996;22.876;2023-04-10T00:54:22;101561.28;;;10.41;54.65
59493;BME280;45497;43.996;22.876;2023-04-10T00:56:48;101547.63;;;10.36;54.74
59493;BME280;45497;43.996;22.876;2023-04-10T00:59:14;101548.59;;;10.35;55.09
59493;BME280;45497;43.996;22.876;2023-04-10T01:01:40;101554.91;;;10.34;55.16
59493;BME280;45497;43.996;22.876;2023-04-10T01:04:06;101550.97;;;10.38;54.76
59493;BME280;45497;43.996;22.876;2023-04-10T01:11:53;101548.59;;;10.35;54.92
59493;BME280;45497;43.996;22.876;2023-04-10T01:17:07;101539.97;;;10.33;55.37
59493;BME280;45497;43.996;22.876;2023-04-10T01:31:14;101543.84;;;10.39;55.49
59493;BME280;45497;43.996;22.876;2023-04-10T01:33:50;101533.69;;;10.34;55.62
59493;BME280;45497;43.996;22.876;2023-04-10T01:36:26;101536.50;;;10.32;55.40
59493;BME280;45497;43.996;22.876;2023-04-10T01:38:53;101531.72;;;10.36;55.55
59493;BME280;45497;43.996;22.876;2023-04-10T01:41:21;101539.81;;;10.35;55.67
59493;BME280;45497;43.996;22.876;2023-04-10T01:43:48;101545.56;;;10.30;55.53
59493;BME280;45497;43.996;22.876;2023-04-10T01:46:15;101536.91;;;10.28;55.61
59493;BME280;45497;43.996;22.876;2023-04-10T01:48:43;101543.00;;;10.38;55.52
59493;BME280;45497;43.996;22.876;2023-04-10T01:51:10;101541.03;;;10.40;55.13
59493;BME280;45497;43.996;22.876;2023-04-10T01:53:37;101545.09;;;10.44;55.19
59493;BME280;45497;43.996;22.876;2023-04-10T01:56:03;101539.88;;;10.25;55.27
59493;BME280;45497;43.996;22.876;2023-04-10T01:58:29;101535.28;;;10.17;55.62
59493;BME280;45497;43.996;22.876;2023-04-10T02:00:55;101534.72;;;10.23;55.44
59493;BME280;45497;43.996;22.876;2023-04-10T02:03:20;101539.16;;;10.32;55.04
59493;BME280;45497;43.996;22.876;2023-04-10T02:08:42;101521.31;;;10.25;54.79
59493;BME280;45497;43.996;22.876;2023-04-10T02:11:16;101526.97;;;10.40;55.09
59493;BME280;45497;43.996;22.876;2023-04-10T02:13:47;101521.00;;;10.38;54.76
59493;BME280;45497;43.996;22.876;2023-04-10T02:16:14;101530.09;;;10.25;54.96
59493;BME280;45497;43.996;22.876;2023-04-10T02:18:44;101525.31;;;10.29;55.10
59493;BME280;45497;43.996;22.876;2023-04-10T02:21:10;101528.25;;;10.36;54.86
59493;BME280;45497;43.996;22.876;2023-04-10T02:23:36;101516.25;;;10.31;55.05
59493;BME280;45497;43.996;22.876;2023-04-10T02:26:06;101510.56;;;10.26;55.03
59493;BME280;45497;43.996;22.876;2023-04-10T02:28:32;101513.47;;;10.33;54.73
59493;BME280;45497;43.996;22.876;2023-04-10T02:30:57;101517.66;;;10.36;54.67
59493;BME280;45497;43.996;22.876;2023-04-10T02:33:23;101527.41;;;10.35;54.56
59493;BME280;45497;43.996;22.876;2023-04-10T02:35:48;101520.78;;;10.21;55.09
59493;BME280;45497;43.996;22.876;2023-04-10T02:38:14;101519.25;;;10.19;55.33
59493;BME280;45497;43.996;22.876;2023-04-10T02:40:39;101512.97;;;10.20;54.73
59493;BME280;45497;43.996;22.876;2023-04-10T02:43:05;101510.31;;;10.20;54.80
59493;BME280;45497;43.996;22.876;2023-04-10T02:45:30;101511.44;;;10.17;54.81
59493;BME280;45497;43.996;22.876;2023-04-10T02:47:57;101511.34;;;10.09;54.99
59493;BME280;45497;43.996;22.876;2023-04-10T02:50:23;101513.00;;;10.10;55.40
59493;BME280;45497;43.996;22.876;2023-04-10T02:52:48;101513.47;;;10.05;55.38
59493;BME280;45497;43.996;22.876;2023-04-10T02:55:14;101520.41;;;10.06;55.49
59493;BME280;45497;43.996;22.876;2023-04-10T02:57:40;101521.13;;;10.08;54.88
59493;BME280;45497;43.996;22.876;2023-04-10T03:00:07;101508.72;;;9.99;55.27
59493;BME280;45497;43.996;22.876;2023-04-10T03:02:32;101525.00;;;10.14;54.68
59493;BME280;45497;43.996;22.876;2023-04-10T03:05:00;101509.25;;;10.12;54.66
59493;BME280;45497;43.996;22.876;2023-04-10T03:07:25;101519.63;;;10.24;54.69
59493;BME280;45497;43.996;22.876;2023-04-10T03:09:51;101511.44;;;10.17;54.66
59493;BME280;45497;43.996;22.876;2023-04-10T03:12:16;101513.72;;;10.12;54.72
59493;BME280;45497;43.996;22.876;2023-04-10T03:14:42;101523.84;;;10.17;54.75
59493;BME280;45497;43.996;22.876;2023-04-10T03:17:08;101515.91;;;10.17;54.56
59493;BME280;45497;43.996;22.876;2023-04-10T03:19:33;101521.81;;;10.10;54.65
59493;BME280;45497;43.996;22.876;2023-04-10T03:21:58;101520.59;;;9.95;54.75
59493;BME280;45497;43.996;22.876;2023-04-10T03:24:24;101526.44;;;9.99;54.87
59493;BME280;45497;43.996;22.876;2023-04-10T03:26:49;101520.19;;;9.90;55.35
59493;BME280;45497;43.996;22.876;2023-04-10T03:29:16;101530.91;;;9.98;55.07
59493;BME280;45497;43.996;22.876;2023-04-10T03:31:43;101534.66;;;9.95;55.33
59493;BME280;45497;43.996;22.876;2023-04-10T03:34:09;101535.94;;;9.91;55.52
59493;BME280;45497;43.996;22.876;2023-04-10T03:36:34;101544.91;;;9.90;55.11
59493;BME280;45497;43.996;22.876;2023-04-10T03:39:00;101536.69;;;9.84;55.27
59493;BME280;45497;43.996;22.876;2023-04-10T03:41:25;101545.47;;;9.84;55.19
59493;BME280;45497;43.996;22.876;2023-04-10T03:43:51;101538.19;;;9.86;55.52
59493;BME280;45497;43.996;22.876;2023-04-10T03:46:16;101546.44;;;9.83;55.18
59493;BME280;45497;43.996;22.876;2023-04-10T03:48:42;101540.31;;;9.83;55.13
59493;BME280;45497;43.996;22.876;2023-04-10T03:51:07;101542.81;;;9.84;54.94
59493;BME280;45497;43.996;22.876;2023-04-10T03:53:33;101555.09;;;9.75;55.43
59493;BME280;45497;43.996;22.876;2023-04-10T03:56:03;101550.66;;;9.66;55.82
59493;BME280;45497;43.996;22.876;2023-04-10T03:58:29;101549.28;;;9.62;55.87
59493;BME280;45497;43.996;22.876;2023-04-10T04:00:54;101552.63;;;9.64;55.84
59493;BME280;45497;43.996;22.876;2023-04-10T04:03:20;101540.25;;;9.55;55.96
59493;BME280;45497;43.996;22.876;2023-04-10T04:05:46;101560.56;;;9.64;55.91
59493;BME280;45497;43.996;22.876;2023-04-10T04:08:11;101557.22;;;9.62;56.16
59493;BME280;45497;43.996;22.876;2023-04-10T04:10:38;101553.91;;;9.60;55.74
59493;BME280;45497;43.996;22.876;2023-04-10T04:13:04;101561.97;;;9.59;55.93
59493;BME280;45497;43.996;22.876;2023-04-10T04:15:29;101562.13;;;9.57;55.86
59493;BME280;45497;43.996;22.876;2023-04-10T04:17:56;101557.53;;;9.49;56.12
59493;BME280;45497;43.996;22.876;2023-04-10T04:20:21;101564.22;;;9.53;56.04
59493;BME280;45497;43.996;22.876;2023-04-10T04:22:47;101564.91;;;9.55;55.69
59493;BME280;45497;43.996;22.876;2023-04-10T04:25:12;101568.53;;;9.54;55.97
59493;BME280;45497;43.996;22.876;2023-04-10T04:27:37;101558.09;;;9.53;56.09
59493;BME280;45497;43.996;22.876;2023-04-10T04:30:03;101564.75;;;9.57;55.51
59493;BME280;45497;43.996;22.876;2023-04-10T04:32:30;101566.28;;;9.60;55.54
59493;BME280;45497;43.996;22.876;2023-04-10T04:34:55;101576.16;;;9.67;55.64
59493;BME280;45497;43.996;22.876;2023-04-10T04:37:21;101571.84;;;9.66;55.96
59493;BME280;45497;43.996;22.876;2023-04-10T04:39:46;101575.88;;;9.70;55.38
59493;BME280;45497;43.996;22.876;2023-04-10T04:42:12;101570.75;;;9.69;55.48
59493;BME280;45497;43.996;22.876;2023-04-10T04:44:37;101577.81;;;9.78;55.81
59493;BME280;45497;43.996;22.876;2023-04-10T04:47:02;101577.81;;;9.78;55.66
59493;BME280;45497;43.996;22.876;2023-04-10T04:49:28;101574.75;;;9.73;55.44
59493;BME280;45497;43.996;22.876;2023-04-10T04:51:53;101569.34;;;9.65;55.93
59493;BME280;45497;43.996;22.876;2023-04-10T04:54:19;101577.41;;;9.63;55.56
59493;BME280;45497;43.996;22.876;2023-04-10T04:56:44;101577.16;;;9.56;55.82
59493;BME280;45497;43.996;22.876;2023-04-10T04:59:10;101583.44;;;9.65;55.82
59493;BME280;45497;43.996;22.876;2023-04-10T05:01:35;101579.50;;;9.69;55.71
59493;BME280;45497;43.996;22.876;2023-04-10T05:04:01;101579.63;;;9.77;55.38
59493;BME280;45497;43.996;22.876;2023-04-10T05:06:26;101588.38;;;9.98;55.80
59493;BME280;45497;43.996;22.876;2023-04-10T05:08:52;101586.09;;;10.03;55.02
59493;BME280;45497;43.996;22.876;2023-04-10T05:11:17;101583.63;;;10.01;55.36
59493;BME280;45497;43.996;22.876;2023-04-10T05:13:43;101583.44;;;10.03;54.83
59493;BME280;45497;43.996;22.876;2023-04-10T05:16:08;101580.50;;;10.16;54.72
59493;BME280;45497;43.996;22.876;2023-04-10T05:18:34;101586.28;;;10.29;54.69
59493;BME280;45497;43.996;22.876;2023-04-10T05:21:00;101577.09;;;10.23;54.75
59493;BME280;45497;43.996;22.876;2023-04-10T05:23:26;101581.63;;;10.68;57.80
59493;BME280;45497;43.996;22.876;2023-04-10T05:25:52;101590.41;;;11.59;64.09
59493;BME280;45497;43.996;22.876;2023-04-10T05:28:17;101587.53;;;11.78;60.91
59493;BME280;45497;43.996;22.876;2023-04-10T05:30:43;101590.38;;;12.03;60.47
59493;BME280;45497;43.996;22.876;2023-04-10T05:33:08;101596.84;;;12.00;58.39
59493;BME280;45497;43.996;22.876;2023-04-10T05:35:34;101603.16;;;12.34;57.81
59493;BME280;45497;43.996;22.876;2023-04-10T05:37:59;101606.84;;;12.49;55.57
59493;BME280;45497;43.996;22.876;2023-04-10T05:40:25;101601.25;;;12.18;54.04
59493;BME280;45497;43.996;22.876;2023-04-10T05:42:51;101597.66;;;12.01;53.45
59493;BME280;45497;43.996;22.876;2023-04-10T05:45:16;101603.69;;;11.85;52.88
59493;BME280;45497;43.996;22.876;2023-04-10T05:47:43;101612.44;;;11.77;52.66
59493;BME280;45497;43.996;22.876;2023-04-10T05:50:09;101593.31;;;11.74;52.16
59493;BME280;45497;43.996;22.876;2023-04-10T05:52:35;101604.69;;;11.84;51.74
59493;BME280;45497;43.996;22.876;2023-04-10T05:55:01;101601.91;;;11.67;51.76
59493;BME280;45497;43.996;22.876;2023-04-10T05:57:28;101595.66;;;11.77;51.93
59493;BME280;45497;43.996;22.876;2023-04-10T05:59:54;101602.03;;;11.84;50.96
59493;BME280;45497;43.996;22.876;2023-04-10T06:02:20;101599.84;;;11.79;51.27
59493;BME280;45497;43.996;22.876;2023-04-10T06:04:46;101596.09;;;11.90;50.96
59493;BME280;45497;43.996;22.876;2023-04-10T06:07:11;101596.09;;;11.90;50.57
59493;BME280;45497;43.996;22.876;2023-04-10T06:09:37;101603.84;;;12.10;50.59
59493;BME280;45497;43.996;22.876;2023-04-10T06:12:02;101600.25;;;12.19;50.19
59493;BME280;45497;43.996;22.876;2023-04-10T06:14:28;101591.66;;;12.33;50.27
59493;BME280;45497;43.996;22.876;2023-04-10T06:16:53;101602.56;;;12.56;49.93
59493;BME280;45497;43.996;22.876;2023-04-10T06:19:19;101604.72;;;12.53;49.54
59493;BME280;45497;43.996;22.876;2023-04-10T06:21:45;101601.88;;;12.46;49.52
59493;BME280;45497;43.996;22.876;2023-04-10T06:24:10;101597.09;;;12.58;49.39
59493;BME280;45497;43.996;22.876;2023-04-10T06:26:36;101597.47;;;12.79;49.01
59493;BME280;45497;43.996;22.876;2023-04-10T06:29:02;101590.84;;;12.92;48.91
59493;BME280;45497;43.996;22.876;2023-04-10T06:31:27;101589.88;;;13.09;48.74
59493;BME280;45497;43.996;22.876;2023-04-10T06:33:52;101592.88;;;13.06;48.10
59493;BME280;45497;43.996;22.876;2023-04-10T06:36:18;101588.53;;;13.22;48.19
59493;BME280;45497;43.996;22.876;2023-04-10T06:38:43;101589.72;;;13.27;47.34
59493;BME280;45497;43.996;22.876;2023-04-10T06:41:09;101594.38;;;13.17;47.16
59493;BME280;45497;43.996;22.876;2023-04-10T06:43:37;101598.88;;;13.16;47.26
59493;BME280;45497;43.996;22.876;2023-04-10T06:46:03;101600.22;;;13.20;46.92
59493;BME280;45497;43.996;22.876;2023-04-10T06:48:30;101602.84;;;13.29;46.61
59493;BME280;45497;43.996;22.876;2023-04-10T06:50:55;101596.22;;;13.41;46.41
59493;BME280;45497;43.996;22.876;2023-04-10T06:53:21;101601.25;;;13.44;46.39
59493;BME280;45497;43.996;22.876;2023-04-10T06:55:46;101604.72;;;13.61;46.50
59493;BME280;45497;43.996;22.876;2023-04-10T06:58:12;101602.38;;;13.74;46.50
59493;BME280;45497;43.996;22.876;2023-04-10T07:00:37;101609.03;;;13.87;46.42
59493;BME280;45497;43.996;22.876;2023-04-10T07:03:03;101611.31;;;13.90;46.12
59493;BME280;45497;43.996;22.876;2023-04-10T07:05:28;101616.53;;;13.75;45.85
59493;BME280;45497;43.996;22.876;2023-04-10T07:07:54;101613.38;;;13.71;45.89
59493;BME280;45497;43.996;22.876;2023-04-10T07:10:19;101604.22;;;13.66;46.21
59493;BME280;45497;43.996;22.876;2023-04-10T07:12:45;101607.88;;;13.81;46.18
59493;BME280;45497;43.996;22.876;2023-04-10T07:15:10;101617.88;;;13.71;45.95
59493;BME280;45497;43.996;22.876;2023-04-10T07:17:37;101615.88;;;13.81;45.69
59493;BME280;45497;43.996;22.876;2023-04-10T07:20:03;101613.84;;;13.75;45.85
59493;BME280;45497;43.996;22.876;2023-04-10T07:22:28;101619.50;;;13.96;45.34
59493;BME280;45497;43.996;22.876;2023-04-10T07:24:55;101628.31;;;13.97;45.46
59493;BME280;45497;43.996;22.876;2023-04-10T07:27:20;101627.50;;;13.88;45.34
59493;BME280;45497;43.996;22.876;2023-04-10T07:29:47;101616.56;;;13.67;45.20
59493;BME280;45497;43.996;22.876;2023-04-10T07:32:12;101611.53;;;13.80;45.51
59493;BME280;45497;43.996;22.876;2023-04-10T07:34:38;101620.19;;;13.90;44.79
59493;BME280;45497;43.996;22.876;2023-04-10T07:37:03;101627.50;;;13.88;45.07
59493;BME280;45497;43.996;22.876;2023-04-10T07:39:29;101617.31;;;14.00;45.15
59493;BME280;45497;43.996;22.876;2023-04-10T07:41:55;101620.75;;;14.25;44.89
59493;BME280;45497;43.996;22.876;2023-04-10T07:44:20;101611.53;;;14.36;44.80
59493;BME280;45497;43.996;22.876;2023-04-10T07:46:46;101608.34;;;14.41;44.63
59493;BME280;45497;43.996;22.876;2023-04-10T07:49:11;101616.28;;;14.57;44.75
59493;BME280;45497;43.996;22.876;2023-04-10T07:51:37;101627.66;;;14.59;44.51
59493;BME280;45497;43.996;22.876;2023-04-10T07:54:03;101615.44;;;14.57;44.18
59493;BME280;45497;43.996;22.876;2023-04-10T07:56:28;101612.00;;;14.48;44.50
59493;BME280;45497;43.996;22.876;2023-04-10T07:58:58;101613.97;;;14.54;44.51
59493;BME280;45497;43.996;22.876;2023-04-10T08:01:25;101610.41;;;14.70;44.53
59493;BME280;45497;43.996;22.876;2023-04-10T08:03:51;101614.53;;;14.81;44.18
59493;BME280;45497;43.996;22.876;2023-04-10T08:06:17;101611.31;;;14.85;44.24
59493;BME280;45497;43.996;22.876;2023-04-10T08:08:42;101599.28;;;14.89;44.47
59493;BME280;45497;43.996;22.876;2023-04-10T08:11:29;101600.44;;;15.18;44.12
59493;BME280;45497;43.996;22.876;2023-04-10T08:13:57;101606.41;;;15.20;44.24
59493;BME280;45497;43.996;22.876;2023-04-10T08:16:26;101604.56;;;15.21;43.39
59493;BME280;45497;43.996;22.876;2023-04-10T08:18:53;101602.84;;;15.28;43.51
59493;BME280;45497;43.996;22.876;2023-04-10T08:21:26;101598.38;;;15.43;43.40
59493;BME280;45497;43.996;22.876;2023-04-10T08:24:02;101595.75;;;15.58;43.31
59493;BME280;45497;43.996;22.876;2023-04-10T08:26:28;101599.00;;;15.68;43.00
59493;BME280;45497;43.996;22.876;2023-04-10T08:28:58;101589.59;;;15.35;42.91
59493;BME280;45497;43.996;22.876;2023-04-10T08:31:24;101589.38;;;15.21;43.30
59493;BME280;45497;43.996;22.876;2023-04-10T08:33:51;101594.50;;;15.46;42.82
59493;BME280;45497;43.996;22.876;2023-04-10T08:36:16;101586.44;;;15.69;42.87
59493;BME280;45497;43.996;22.876;2023-04-10T08:38:45;101591.59;;;15.94;42.53
59493;BME280;45497;43.996;22.876;2023-04-10T08:41:12;101585.97;;;15.89;42.43
59493;BME280;45497;43.996;22.876;2023-04-10T08:43:38;101589.16;;;15.99;42.31
59493;BME280;45497;43.996;22.876;2023-04-10T08:46:04;101589.84;;;16.01;42.30
59493;BME280;45497;43.996;22.876;2023-04-10T08:48:37;101593.69;;;16.13;42.15
59493;BME280;45497;43.996;22.876;2023-04-10T08:51:06;101585.03;;;16.11;42.10
59493;BME280;45497;43.996;22.876;2023-04-10T08:53:35;101574.31;;;16.11;41.96
59493;BME280;45497;43.996;22.876;2023-04-10T08:56:06;101577.19;;;16.24;41.84
59493;BME280;45497;43.996;22.876;2023-04-10T08:58:31;101585.63;;;16.43;42.20
59493;BME280;45497;43.996;22.876;2023-04-10T09:00:58;101580.28;;;16.43;41.73
59493;BME280;45497;43.996;22.876;2023-04-10T09:03:24;101585.81;;;16.41;41.41
59493;BME280;45497;43.996;22.876;2023-04-10T09:05:50;101566.44;;;16.39;41.38
59493;BME280;45497;43.996;22.876;2023-04-10T09:08:16;101565.97;;;16.51;41.36
59493;BME280;45497;43.996;22.876;2023-04-10T09:10:41;101571.31;;;16.51;41.09
59493;BME280;45497;43.996;22.876;2023-04-10T09:13:07;101557.41;;;16.40;40.99
59493;BME280;45497;43.996;22.876;2023-04-10T09:15:55;101548.06;;;16.51;40.95
59493;BME280;45497;43.996;22.876;2023-04-10T09:18:21;101566.22;;;16.56;40.48
59493;BME280;45497;43.996;22.876;2023-04-10T09:20:46;101555.41;;;16.64;41.55
59493;BME280;45497;43.996;22.876;2023-04-10T09:23:21;101553.69;;;16.78;40.75
59493;BME280;45497;43.996;22.876;2023-04-10T09:25:47;101543.72;;;16.87;41.10
59493;BME280;45497;43.996;22.876;2023-04-10T09:28:12;101535.31;;;16.90;40.90
59493;BME280;45497;43.996;22.876;2023-04-10T09:30:40;101552.66;;;16.94;40.61
59493;BME280;45497;43.996;22.876;2023-04-10T09:33:25;101541.66;;;16.89;40.64
59493;BME280;45497;43.996;22.876;2023-04-10T09:35:52;101536.38;;;16.95;40.63
59493;BME280;45497;43.996;22.876;2023-04-10T09:38:19;101534.75;;;16.94;39.79
59493;BME280;45497;43.996;22.876;2023-04-10T09:40:46;101528.16;;;16.97;40.40
59493;BME280;45497;43.996;22.876;2023-04-10T09:43:22;101536.31;;;17.10;40.30
59493;BME280;45497;43.996;22.876;2023-04-10T09:45:50;101533.06;;;17.15;40.05
59493;BME280;45497;43.996;22.876;2023-04-10T09:48:16;101533.00;;;17.08;39.55
59493;BME280;45497;43.996;22.876;2023-04-10T09:50:42;101535.00;;;17.28;39.77
59493;BME280;45497;43.996;22.876;2023-04-10T09:53:13;101532.41;;;17.41;39.44
59493;BME280;45497;43.996;22.876;2023-04-10T09:55:40;101526.94;;;17.49;38.60
59493;BME280;45497;43.996;22.876;2023-04-10T09:58:06;101520.13;;;17.47;38.87
59493;BME280;45497;43.996;22.876;2023-04-10T10:00:41;101517.88;;;17.50;38.89
59493;BME280;45497;43.996;22.876;2023-04-10T10:03:13;101517.81;;;17.44;39.22
59493;BME280;45497;43.996;22.876;2023-04-10T10:05:40;101525.31;;;17.55;38.91
59493;BME280;45497;43.996;22.876;2023-04-10T10:08:08;101504.81;;;17.41;38.59
59493;BME280;45497;43.996;22.876;2023-04-10T10:10:37;101511.28;;;17.53;38.60
59493;BME280;45497;43.996;22.876;2023-04-10T10:13:04;101509.50;;;17.67;38.68
59493;BME280;45497;43.996;22.876;2023-04-10T10:15:49;101509.75;;;17.72;38.85
59493;BME280;45497;43.996;22.876;2023-04-10T10:18:21;101498.91;;;17.87;38.51
59493;BME280;45497;43.996;22.876;2023-04-10T10:20:49;101500.44;;;17.68;37.98
59493;BME280;45497;43.996;22.876;2023-04-10T10:23:16;101501.81;;;17.57;37.59
59493;BME280;45497;43.996;22.876;2023-04-10T10:25:42;101497.06;;;17.52;37.54
59493;BME280;45497;43.996;22.876;2023-04-10T10:28:11;101496.19;;;17.45;36.76
59493;BME280;45497;43.996;22.876;2023-04-10T10:30:37;101486.97;;;17.54;37.20
59493;BME280;45497;43.996;22.876;2023-04-10T10:33:05;101482.06;;;17.65;37.44
59493;BME280;45497;43.996;22.876;2023-04-10T10:35:34;101486.00;;;17.69;37.03
59493;BME280;45497;43.996;22.876;2023-04-10T10:38:01;101475.63;;;17.59;36.72
59493;BME280;45497;43.996;22.876;2023-04-10T10:40:35;101481.47;;;17.69;36.95
59493;BME280;45497;43.996;22.876;2023-04-10T10:43:14;101476.78;;;17.78;37.02
59493;BME280;45497;43.996;22.876;2023-04-10T10:46:01;101471.56;;;17.70;36.73
59493;BME280;45497;43.996;22.876;2023-04-10T10:48:27;101480.44;;;17.70;36.94
59493;BME280;45497;43.996;22.876;2023-04-10T10:50:55;101463.31;;;17.71;36.53
59493;BME280;45497;43.996;22.876;2023-04-10T10:53:38;101461.69;;;17.77;36.65
59493;BME280;45497;43.996;22.876;2023-04-10T10:58:55;101442.22;;;17.96;36.77
59493;BME280;45497;43.996;22.876;2023-04-10T11:01:22;101442.22;;;17.90;36.51
59493;BME280;45497;43.996;22.876;2023-04-10T11:03:49;101441.91;;;17.78;36.51
59493;BME280;45497;43.996;22.876;2023-04-10T11:06:16;101440.66;;;17.81;36.49
59493;BME280;45497;43.996;22.876;2023-04-10T11:08:53;101433.72;;;17.93;36.44
59493;BME280;45497;43.996;22.876;2023-04-10T11:11:22;101437.25;;;18.00;36.21
59493;BME280;45497;43.996;22.876;2023-04-10T11:16:40;101415.38;;;17.90;36.08
59493;BME280;45497;43.996;22.876;2023-04-10T11:19:08;101419.50;;;17.92;35.75
59493;BME280;45497;43.996;22.876;2023-04-10T11:22:06;101406.75;;;18.01;36.10
59493;BME280;45497;43.996;22.876;2023-04-10T11:24:51;101400.16;;;18.10;35.81
59493;BME280;45497;43.996;22.876;2023-04-10T11:27:39;101396.66;;;18.10;36.37
59493;BME280;45497;43.996;22.876;2023-04-10T11:30:33;101390.88;;;18.20;35.87
59493;BME280;45497;43.996;22.876;2023-04-10T11:33:00;101395.00;;;18.15;36.30
59493;BME280;45497;43.996;22.876;2023-04-10T11:35:26;101385.31;;;18.21;35.67
59493;BME280;45497;43.996;22.876;2023-04-10T11:40:35;101382.81;;;18.06;36.08
59493;BME280;45497;43.996;22.876;2023-04-10T11:43:16;101379.13;;;18.27;36.13
59493;BME280;45497;43.996;22.876;2023-04-10T11:45:42;101379.31;;;18.12;35.16
59493;BME280;45497;43.996;22.876;2023-04-10T11:48:07;101374.34;;;18.03;35.18
59493;BME280;45497;43.996;22.876;2023-04-10T11:50:33;101368.78;;;18.04;35.54
59493;BME280;45497;43.996;22.876;2023-04-10T11:53:00;101364.03;;;18.20;35.64
59493;BME280;45497;43.996;22.876;2023-04-10T11:55:38;101359.31;;;18.35;35.30
59493;BME280;45497;43.996;22.876;2023-04-10T11:58:03;101361.19;;;18.48;35.01
59493;BME280;45497;43.996;22.876;2023-04-10T12:00:29;101363.88;;;18.48;34.98
59493;BME280;45497;43.996;22.876;2023-04-10T12:02:55;101359.72;;;18.32;34.82
59493;BME280;45497;43.996;22.876;2023-04-10T12:05:20;101343.63;;;18.45;35.21
59493;BME280;45497;43.996;22.876;2023-04-10T12:07:47;101351.25;;;18.62;34.95
59493;BME280;45497;43.996;22.876;2023-04-10T12:10:14;101342.16;;;18.56;34.16
59493;BME280;45497;43.996;22.876;2023-04-10T12:12:39;101331.22;;;18.51;33.89
59493;BME280;45497;43.996;22.876;2023-04-10T12:15:25;101335.75;;;18.44;33.17
59493;BME280;45497;43.996;22.876;2023-04-10T12:17:51;101338.03;;;18.47;32.64
59493;BME280;45497;43.996;22.876;2023-04-10T12:20:16;101326.50;;;18.33;31.97
59493;BME280;45497;43.996;22.876;2023-04-10T12:22:42;101319.66;;;18.24;32.00
59493;BME280;45497;43.996;22.876;2023-04-10T12:25:11;101322.56;;;18.42;32.24
59493;BME280;45497;43.996;22.876;2023-04-10T12:27:36;101313.88;;;18.20;31.72
59493;BME280;45497;43.996;22.876;2023-04-10T12:30:06;101309.97;;;18.23;32.14
59493;BME280;45497;43.996;22.876;2023-04-10T12:32:31;101304.81;;;18.28;32.32
59493;BME280;45497;43.996;22.876;2023-04-10T12:34:57;101300.88;;;18.30;32.74
59493;BME280;45497;43.996;22.876;2023-04-10T12:37:46;101297.78;;;18.47;32.67
59493;BME280;45497;43.996;22.876;2023-04-10T12:40:12;101298.59;;;18.61;32.56
59493;BME280;45497;43.996;22.876;2023-04-10T12:42:41;101292.59;;;18.59;32.25
59493;BME280;45497;43.996;22.876;2023-04-10T12:45:07;101290.94;;;18.58;32.40
59493;BME280;45497;43.996;22.876;2023-04-10T12:48:03;101280.44;;;18.49;32.34
59493;BME280;45497;43.996;22.876;2023-04-10T12:50:29;101286.22;;;18.53;32.01
59493;BME280;45497;43.996;22.876;2023-04-10T12:53:04;101275.88;;;18.50;31.96
59493;BME280;45497;43.996;22.876;2023-04-10T12:55:34;101273.81;;;18.59;31.37
59493;BME280;45497;43.996;22.876;2023-04-10T12:58:15;101266.38;;;18.61;31.37
59493;BME280;45497;43.996;22.876;2023-04-10T13:01:03;101259.94;;;18.62;31.81
59493;BME280;45497;43.996;22.876;2023-04-10T13:03:29;101257.50;;;18.60;31.27
59493;BME280;45497;43.996;22.876;2023-04-10T13:05:54;101259.38;;;18.53;31.26
59493;BME280;45497;43.996;22.876;2023-04-10T13:08:21;101263.06;;;18.52;30.35
59493;BME280;45497;43.996;22.876;2023-04-10T13:10:47;101255.63;;;18.47;30.24
59493;BME280;45497;43.996;22.876;2023-04-10T13:13:14;101261.00;;;18.61;30.63